Time;durP1;ratioP1;P1;durP2;ratioP2;P2;SDS_P1;SDS_P2;PMS_P1;PMS_P2;Temp;Humidity;BMP_temperature;BMP_pressure;BME280_temperature;BME280_humidity;BME280_pressure;Samples;Min_cycle;Max_cycle;Signal;HPM_P1;HPM_P2
2024/01/18 00:01:01;;;;;;;2.30;0.88;;;15.10;72.90;;;;;;2494923;54;20989;-68
2024/01/18 00:03:30;;;;;;;0.55;0.25;;;15.10;72.90;;;;;;2264639;55;21026;-67
2024/01/18 00:05:57;;;;;;;2.85;0.80;;;15.10;73.00;;;;;;2493691;54;20946;-66
2024/01/18 00:08:25;;;;;;;1.33;0.50;;;15.10;72.90;;;;;;2494313;54;21258;-69
2024/01/18 00:10:51;;;;;;;1.15;0.52;;;15.10;72.90;;;;;;2494947;54;20954;-67
2024/01/18 00:13:18;;;;;;;1.25;0.55;;;15.10;72.90;;;;;;2494272;54;20947;-67
2024/01/18 00:15:45;;;;;;;1.33;0.60;;;15.00;72.80;;;;;;2264848;55;20946;-68
2024/01/18 00:18:13;;;;;;;2.00;0.70;;;15.00;72.80;;;;;;2493694;54;21019;-67
2024/01/18 00:20:39;;;;;;;2.83;0.60;;;15.00;72.70;;;;;;2264251;55;20959;-67
2024/01/18 00:23:05;;;;;;;1.20;0.50;;;15.00;72.80;;;;;;2494690;54;20986;-68
2024/01/18 00:25:32;;;;;;;1.25;0.50;;;15.00;72.80;;;;;;2264514;55;20951;-67
2024/01/18 00:27:58;;;;;;;1.15;0.52;;;15.00;72.70;;;;;;2493333;54;20959;-67
2024/01/18 00:30:24;;;;;;;1.30;0.62;;;14.90;72.70;;;;;;2264226;55;20978;-68
2024/01/18 00:32:50;;;;;;;2.08;0.60;;;14.90;72.70;;;;;;2264776;55;20970;-67
2024/01/18 00:35:17;;;;;;;1.20;0.50;;;14.90;72.70;;;;;;2265111;55;20954;-68
2024/01/18 00:37:46;;;;;;;1.98;0.62;;;14.90;72.70;;;;;;2263947;55;20983;-68
2024/01/18 00:40:16;;;;;;;2.12;0.62;;;14.90;72.70;;;;;;2265957;55;20950;-67
2024/01/18 00:42:42;;;;;;;2.25;0.70;;;14.90;72.70;;;;;;2493801;54;21428;-66
2024/01/18 00:45:09;;;;;;;2.22;0.57;;;14.80;72.60;;;;;;2264911;55;21006;-67
2024/01/18 00:47:35;;;;;;;3.12;0.57;;;14.80;72.60;;;;;;2494085;54;21783;-67
2024/01/18 00:50:02;;;;;;;1.52;0.60;;;14.80;72.60;;;;;;2264185;55;20991;-68
2024/01/18 00:52:29;;;;;;;2.53;0.68;;;14.80;72.60;;;;;;2256897;56;21006;-68
2024/01/18 00:54:56;;;;;;;2.08;0.60;;;14.70;72.60;;;;;;2265036;55;21045;-67
2024/01/18 00:57:26;;;;;;;1.98;0.60;;;14.80;72.70;;;;;;2265106;55;21068;-69
2024/01/18 00:59:53;;;;;;;1.50;0.50;;;14.70;72.60;;;;;;2258437;55;20970;-68
2024/01/18 01:02:20;;;;;;;2.03;0.60;;;14.70;72.70;;;;;;2494719;54;21482;-66
2024/01/18 01:04:46;;;;;;;2.90;0.70;;;14.70;72.80;;;;;;2265239;55;21027;-66
2024/01/18 01:07:13;;;;;;;1.77;0.62;;;14.70;72.80;;;;;;2494530;54;21035;-68
2024/01/18 01:09:39;;;;;;;1.85;0.60;;;14.80;72.90;;;;;;2264672;55;21435;-67
2024/01/18 01:12:06;;;;;;;2.85;0.70;;;14.70;73.00;;;;;;2264814;55;21022;-67
2024/01/18 01:14:32;;;;;;;1.87;0.55;;;14.70;73.00;;;;;;2264757;55;20955;-68
2024/01/18 01:16:58;;;;;;;3.08;0.82;;;14.70;73.10;;;;;;2264548;55;20987;-68
2024/01/18 01:19:31;;;;;;;1.87;0.60;;;14.70;73.20;;;;;;2477646;54;20961;-68
2024/01/18 01:21:58;;;;;;;1.17;0.50;;;14.70;73.30;;;;;;2494170;54;21008;-68
2024/01/18 01:24:24;;;;;;;2.17;0.77;;;14.70;73.30;;;;;;2264652;55;21012;-67
2024/01/18 01:26:51;;;;;;;1.73;0.62;;;14.60;73.10;;;;;;2264983;55;20982;-68
2024/01/18 01:29:17;;;;;;;2.33;0.60;;;14.70;73.30;;;;;;2264335;55;22001;-67
2024/01/18 01:31:44;;;;;;;1.75;0.70;;;14.70;73.30;;;;;;2494560;54;21027;-67
2024/01/18 01:34:10;;;;;;;2.67;0.57;;;14.70;73.20;;;;;;2494222;54;20986;-67
2024/01/18 01:36:37;;;;;;;1.75;0.57;;;14.70;73.30;;;;;;2264247;55;20922;-67
2024/01/18 01:39:03;;;;;;;1.77;0.80;;;14.70;73.20;;;;;;2493983;54;21424;-66
2024/01/18 01:41:30;;;;;;;3.28;0.80;;;14.70;73.30;;;;;;2264242;55;20927;-67
2024/01/18 01:43:59;;;;;;;2.37;0.70;;;14.70;73.20;;;;;;2265507;55;20955;-69
2024/01/18 01:46:26;;;;;;;1.45;0.55;;;14.70;73.20;;;;;;2263592;55;20978;-67
2024/01/18 01:49:03;;;;;;;3.28;0.65;;;14.70;73.20;;;;;;2264544;55;20982;-68
2024/01/18 01:51:52;;;;;;;1.65;0.57;;;14.70;72.90;;;;;;2494099;54;20923;-66
2024/01/18 01:54:19;;;;;;;2.15;0.80;;;14.70;73.10;;;;;;2494630;54;21011;-68
2024/01/18 01:56:46;;;;;;;5.68;1.02;;;14.70;73.00;;;;;;2264673;55;20930;-68
2024/01/18 01:59:12;;;;;;;1.90;0.55;;;14.70;73.00;;;;;;2264224;55;21853;-68
2024/01/18 02:01:40;;;;;;;2.40;0.60;;;14.70;73.00;;;;;;2264669;55;21022;-67
2024/01/18 02:04:07;;;;;;;2.45;0.70;;;14.70;72.90;;;;;;2494145;54;21018;-69
2024/01/18 02:06:35;;;;;;;2.28;0.85;;;14.70;72.90;;;;;;2264561;55;21047;-67
2024/01/18 02:09:01;;;;;;;2.42;0.80;;;14.60;72.90;;;;;;2264144;55;20931;-68
2024/01/18 02:11:28;;;;;;;3.08;0.75;;;14.60;72.90;;;;;;2493578;54;21423;-68
2024/01/18 02:13:59;;;;;;;2.72;0.60;;;14.60;72.90;;;;;;2264884;55;20950;-68
2024/01/18 02:16:25;;;;;;;2.13;0.60;;;14.60;72.80;;;;;;2263813;55;21094;-68
2024/01/18 02:18:52;;;;;;;2.67;1.00;;;14.60;72.90;;;;;;2493836;54;22533;-67
2024/01/18 02:21:18;;;;;;;1.90;0.55;;;14.60;72.90;;;;;;2264188;55;20958;-68
2024/01/18 02:23:51;;;;;;;2.08;0.70;;;14.60;72.90;;;;;;2493783;54;21333;-67
2024/01/18 02:26:17;;;;;;;1.98;0.75;;;14.60;72.90;;;;;;2493542;54;21669;-69
2024/01/18 02:28:55;;;;;;;2.00;0.68;;;14.60;73.00;;;;;;2493308;54;21098;-69
2024/01/18 02:31:21;;;;;;;3.50;0.80;;;14.60;72.70;;;;;;2264934;55;20970;-68
2024/01/18 02:33:48;;;;;;;1.73;0.52;;;14.60;73.00;;;;;;2263869;55;20977;-67
2024/01/18 02:36:15;;;;;;;4.15;0.90;;;14.60;73.00;;;;;;2263705;55;21042;-68
2024/01/18 02:38:43;;;;;;;3.20;0.70;;;14.60;73.10;;;;;;2493796;54;21010;-67
2024/01/18 02:41:11;;;;;;;2.78;0.57;;;14.60;73.10;;;;;;2264211;55;21159;-68
2024/01/18 02:43:38;;;;;;;1.37;0.60;;;14.60;73.20;;;;;;2264169;55;21764;-66
2024/01/18 02:46:04;;;;;;;4.87;0.70;;;14.60;73.20;;;;;;2494632;54;20986;-67
2024/01/18 02:48:30;;;;;;;3.62;0.80;;;14.50;73.10;;;;;;2493177;54;20957;-67
2024/01/18 02:50:57;;;;;;;1.50;0.47;;;14.60;73.20;;;;;;2264763;55;21282;-67
2024/01/18 02:53:23;;;;;;;2.30;0.52;;;14.60;73.20;;;;;;2264879;55;20938;-66
2024/01/18 02:55:49;;;;;;;2.17;0.60;;;14.60;73.20;;;;;;2264273;55;21085;-68
2024/01/18 02:58:16;;;;;;;3.05;0.47;;;14.60;73.20;;;;;;2483803;54;20957;-67
2024/01/18 03:00:43;;;;;;;3.08;0.88;;;14.60;73.30;;;;;;2260383;55;20936;-68
2024/01/18 03:03:09;;;;;;;2.28;0.57;;;14.60;73.30;;;;;;2487739;54;20974;-69
2024/01/18 03:05:36;;;;;;;2.72;0.60;;;14.60;73.30;;;;;;2264616;55;20966;-67
2024/01/18 03:08:03;;;;;;;1.92;0.55;;;14.60;74.00;;;;;;2265736;55;21963;-68
2024/01/18 03:10:29;;;;;;;1.73;0.52;;;14.60;73.30;;;;;;2258065;55;21592;-68
2024/01/18 03:12:56;;;;;;;1.17;0.40;;;14.60;73.30;;;;;;2263299;55;20959;-68
2024/01/18 03:15:22;;;;;;;1.73;0.50;;;14.60;73.30;;;;;;2264614;55;21613;-67
2024/01/18 03:17:49;;;;;;;2.40;0.60;;;14.60;73.30;;;;;;2493235;54;20962;-68
2024/01/18 03:20:15;;;;;;;0.95;0.30;;;14.60;73.30;;;;;;2264153;55;21437;-67
2024/01/18 03:22:42;;;;;;;1.90;0.40;;;14.60;73.30;;;;;;2265096;55;20951;-68
2024/01/18 03:25:08;;;;;;;1.33;0.45;;;14.60;73.20;;;;;;2264992;55;20991;-66
2024/01/18 03:27:35;;;;;;;4.95;0.70;;;14.70;74.10;;;;;;2264735;55;21492;-66
2024/01/18 03:30:01;;;;;;;2.03;0.50;;;14.60;73.30;;;;;;2265392;55;21022;-67
2024/01/18 03:32:27;;;;;;;2.70;0.55;;;14.60;73.30;;;;;;2264553;55;20963;-67
2024/01/18 03:34:54;;;;;;;3.00;0.60;;;14.60;73.30;;;;;;2265413;55;21022;-69
2024/01/18 03:37:20;;;;;;;2.42;0.50;;;14.60;73.30;;;;;;2493144;54;20974;-68
2024/01/18 03:39:47;;;;;;;2.33;0.62;;;14.60;73.30;;;;;;2494110;54;21298;-66
2024/01/18 03:42:14;;;;;;;1.73;0.60;;;14.60;73.30;;;;;;2494234;54;20915;-68
2024/01/18 03:44:40;;;;;;;1.40;0.40;;;14.60;73.30;;;;;;2493280;54;20954;-66
2024/01/18 03:47:07;;;;;;;2.30;0.60;;;14.70;73.50;;;;;;2481640;54;21036;-66
2024/01/18 03:49:33;;;;;;;2.67;0.68;;;14.70;73.50;;;;;;2264473;55;21687;-69
2024/01/18 03:51:59;;;;;;;1.10;0.45;;;14.70;73.40;;;;;;2264741;55;20950;-67
2024/01/18 03:54:26;;;;;;;1.27;0.43;;;14.70;73.50;;;;;;2264969;55;20994;-68
2024/01/18 03:56:53;;;;;;;1.73;0.35;;;14.70;73.40;;;;;;2494151;54;21750;-69
2024/01/18 03:59:23;;;;;;;1.62;0.47;;;14.70;73.40;;;;;;2264791;55;20939;-68
2024/01/18 04:01:50;;;;;;;4.18;0.70;;;14.70;73.40;;;;;;2493641;54;20967;-68
2024/01/18 04:04:17;;;;;;;1.42;0.40;;;14.70;73.30;;;;;;2494300;54;20962;-68
2024/01/18 04:06:43;;;;;;;2.87;0.52;;;14.70;73.10;;;;;;2494262;54;21074;-70
2024/01/18 04:09:09;;;;;;;2.00;0.70;;;14.70;73.00;;;;;;2264890;55;21015;-69
2024/01/18 04:11:38;;;;;;;3.50;0.70;;;14.70;73.10;;;;;;2493908;54;20982;-68
2024/01/18 04:14:06;;;;;;;4.68;1.10;;;14.70;73.10;;;;;;2493274;54;20966;-69
2024/01/18 04:16:33;;;;;;;2.65;0.60;;;14.70;73.10;;;;;;2493604;54;22109;-68
2024/01/18 04:18:59;;;;;;;2.80;0.77;;;14.60;73.00;;;;;;2264547;55;21511;-69
2024/01/18 04:21:28;;;;;;;2.83;0.62;;;14.60;73.10;;;;;;2263959;55;20962;-67
2024/01/18 04:23:56;;;;;;;3.37;0.90;;;14.60;73.00;;;;;;2264830;55;21026;-69
2024/01/18 04:26:23;;;;;;;3.83;0.90;;;14.70;73.20;;;;;;2264816;55;21054;-68
2024/01/18 04:28:49;;;;;;;4.37;0.80;;;14.60;73.10;;;;;;2264415;55;21425;-69
2024/01/18 04:31:16;;;;;;;1.98;0.60;;;14.50;73.10;;;;;;2264662;55;20946;-69
2024/01/18 04:33:42;;;;;;;2.87;0.62;;;14.50;73.10;;;;;;2263980;55;21341;-68
2024/01/18 04:36:08;;;;;;;2.90;0.70;;;14.50;73.10;;;;;;2265279;55;20974;-69
2024/01/18 04:38:35;;;;;;;2.00;0.50;;;14.50;73.20;;;;;;2483161;54;21473;-67
2024/01/18 04:41:01;;;;;;;1.17;0.40;;;14.40;73.10;;;;;;2491724;54;20959;-68
2024/01/18 04:43:27;;;;;;;1.48;0.43;;;14.50;73.20;;;;;;2254516;56;20962;-69
2024/01/18 04:45:53;;;;;;;1.83;0.45;;;14.40;73.20;;;;;;2265061;55;21026;-68
2024/01/18 04:48:23;;;;;;;1.30;0.40;;;14.40;73.20;;;;;;2257239;55;20960;-69
2024/01/18 04:50:49;;;;;;;0.77;0.30;;;14.40;73.30;;;;;;2264499;55;21029;-68
2024/01/18 04:53:16;;;;;;;1.37;0.43;;;14.40;73.30;;;;;;2494074;54;20927;-68
2024/01/18 04:55:44;;;;;;;4.00;0.73;;;14.40;73.30;;;;;;2492147;54;20975;-68
2024/01/18 04:58:10;;;;;;;2.47;0.55;;;14.30;73.10;;;;;;2494507;54;20975;-68
2024/01/18 05:00:37;;;;;;;2.12;0.50;;;14.30;73.20;;;;;;2264614;55;20954;-67
2024/01/18 05:03:03;;;;;;;2.00;0.50;;;14.30;73.20;;;;;;2264654;55;21040;-68
2024/01/18 05:05:31;;;;;;;1.92;0.40;;;14.30;73.30;;;;;;2264468;55;21067;-68
2024/01/18 05:07:57;;;;;;;2.80;0.70;;;14.30;73.50;;;;;;2259374;56;21697;-68
2024/01/18 05:10:23;;;;;;;2.58;0.60;;;14.30;73.40;;;;;;2477551;54;21020;-68
2024/01/18 05:12:51;;;;;;;2.17;0.50;;;14.30;73.50;;;;;;2261702;55;20975;-68
2024/01/18 05:15:18;;;;;;;1.30;0.35;;;14.30;73.50;;;;;;2264269;55;20926;-68
2024/01/18 05:17:46;;;;;;;1.87;0.60;;;14.30;73.50;;;;;;2264022;55;21427;-67
2024/01/18 05:20:15;;;;;;;1.27;0.40;;;14.30;73.50;;;;;;2264812;55;21050;-68
2024/01/18 05:22:42;;;;;;;3.67;0.70;;;14.20;73.40;;;;;;2493269;54;20926;-69
2024/01/18 05:25:08;;;;;;;2.75;0.90;;;14.20;73.50;;;;;;2265107;55;20962;-69
2024/01/18 05:27:37;;;;;;;2.05;0.50;;;14.20;73.60;;;;;;2493422;54;20955;-68
2024/01/18 05:30:05;;;;;;;3.17;0.60;;;14.20;73.40;;;;;;2264200;55;21031;-68
2024/01/18 05:32:31;;;;;;;1.65;0.50;;;14.20;73.50;;;;;;2492484;54;20955;-69
2024/01/18 05:35:04;;;;;;;0.70;0.30;;;14.20;73.50;;;;;;2487940;54;20948;-67
2024/01/18 05:37:31;;;;;;;4.43;0.93;;;14.20;73.40;;;;;;2477910;55;20989;-68
2024/01/18 05:39:57;;;;;;;0.95;0.30;;;14.20;73.40;;;;;;2261263;55;21023;-68
2024/01/18 05:42:27;;;;;;;1.00;0.25;;;14.20;73.40;;;;;;2266379;55;20955;-67
2024/01/18 05:44:53;;;;;;;1.37;0.30;;;14.20;73.50;;;;;;2259275;55;20984;-69
2024/01/18 05:47:22;;;;;;;0.70;0.30;;;14.20;73.40;;;;;;2263862;55;20924;-68
2024/01/18 05:49:49;;;;;;;1.42;0.35;;;14.20;73.30;;;;;;2254745;55;20970;-68
2024/01/18 05:52:16;;;;;;;0.40;0.20;;;14.10;73.30;;;;;;2264646;55;21085;-68
2024/01/18 05:54:42;;;;;;;1.00;0.32;;;14.10;73.30;;;;;;2267448;55;20971;-69
2024/01/18 05:57:08;;;;;;;1.05;0.30;;;14.10;73.30;;;;;;2493032;54;21014;-68
2024/01/18 05:59:36;;;;;;;1.60;0.30;;;14.10;73.40;;;;;;2264040;55;20975;-68
2024/01/18 06:02:03;;;;;;;2.22;0.30;;;14.10;73.40;;;;;;2265649;55;20986;-68
2024/01/18 06:04:30;;;;;;;1.27;0.35;;;14.10;73.40;;;;;;2264018;55;21175;-68
2024/01/18 06:06:57;;;;;;;1.10;0.20;;;14.10;73.50;;;;;;2262764;55;21239;-68
2024/01/18 06:09:23;;;;;;;1.62;0.32;;;14.10;73.30;;;;;;2265329;55;20994;-67
2024/01/18 06:11:49;;;;;;;0.77;0.30;;;14.10;73.50;;;;;;2264364;55;21097;-68
2024/01/18 06:14:20;;;;;;;1.15;0.40;;;14.10;73.50;;;;;;2265421;55;21065;-68
2024/01/18 06:16:49;;;;;;;1.48;0.60;;;14.10;73.40;;;;;;2493133;54;21354;-68
2024/01/18 06:19:15;;;;;;;1.70;0.40;;;14.10;73.50;;;;;;2263297;55;20996;-69
2024/01/18 06:21:41;;;;;;;1.75;0.50;;;14.10;73.60;;;;;;2256936;55;20983;-67
2024/01/18 06:24:10;;;;;;;1.65;0.60;;;14.10;73.60;;;;;;2494365;54;20958;-68
2024/01/18 06:26:36;;;;;;;1.92;0.60;;;14.10;73.50;;;;;;2264577;55;21266;-69
2024/01/18 06:29:04;;;;;;;1.52;0.70;;;14.10;73.60;;;;;;2264734;55;20958;-69
2024/01/18 06:31:31;;;;;;;0.88;0.40;;;14.10;73.50;;;;;;2494308;54;20915;-67
2024/01/18 06:33:58;;;;;;;3.35;0.80;;;14.10;73.50;;;;;;2265093;55;21342;-69
2024/01/18 06:36:26;;;;;;;1.33;0.55;;;14.10;73.50;;;;;;2265346;55;21018;-69
2024/01/18 06:38:52;;;;;;;1.25;0.60;;;14.10;73.50;;;;;;2267336;55;20998;-68
2024/01/18 06:41:19;;;;;;;2.33;0.90;;;14.10;73.50;;;;;;2254639;55;20958;-69
2024/01/18 06:43:46;;;;;;;3.97;1.20;;;14.20;73.60;;;;;;2494149;54;21022;-68
2024/01/18 06:46:16;;;;;;;6.32;2.00;;;14.10;73.60;;;;;;2254999;55;20967;-67
2024/01/18 06:48:42;;;;;;;5.10;1.90;;;14.20;73.50;;;;;;2264674;55;20999;-68
2024/01/18 06:51:13;;;;;;;7.57;2.90;;;14.20;73.50;;;;;;2494275;54;21785;-68
2024/01/18 06:53:40;;;;;;;21.73;8.82;;;14.20;73.50;;;;;;2264814;55;20974;-68
2024/01/18 06:56:11;;;;;;;15.07;6.20;;;14.20;73.70;;;;;;2264622;55;20970;-67
2024/01/18 06:58:37;;;;;;;8.20;3.12;;;14.20;73.60;;;;;;2494276;54;21017;-69
2024/01/18 07:01:06;;;;;;;28.85;10.45;;;14.20;73.70;;;;;;2265196;55;20971;-68
2024/01/18 07:03:35;;;;;;;19.95;8.68;;;14.20;73.80;;;;;;2265003;55;20938;-68
2024/01/18 07:06:04;;;;;;;20.85;8.75;;;14.20;74.50;;;;;;2494242;54;21026;-69
2024/01/18 07:08:30;;;;;;;12.43;5.55;;;14.20;73.80;;;;;;2258092;56;20953;-68
2024/01/18 07:11:01;;;;;;;6.70;3.00;;;14.20;74.00;;;;;;2263410;55;21058;-70
2024/01/18 07:13:27;;;;;;;4.78;2.12;;;14.20;73.60;;;;;;2264906;55;21053;-69
2024/01/18 07:15:54;;;;;;;4.12;1.60;;;14.20;73.20;;;;;;2263779;55;21042;-69
2024/01/18 07:18:20;;;;;;;3.08;1.37;;;14.20;72.80;;;;;;2257729;55;20954;-69
2024/01/18 07:20:47;;;;;;;1.67;0.70;;;14.10;72.30;;;;;;2263233;55;21218;-69
2024/01/18 07:23:13;;;;;;;2.50;0.98;;;14.10;72.10;;;;;;2264304;55;20962;-70
2024/01/18 07:25:39;;;;;;;3.60;1.08;;;14.10;72.20;;;;;;2482513;54;20964;-68
2024/01/18 07:28:06;;;;;;;1.70;0.77;;;14.00;72.10;;;;;;2262410;56;21022;-69
2024/01/18 07:30:33;;;;;;;2.40;1.08;;;14.00;72.10;;;;;;2264885;55;20958;-68
2024/01/18 07:32:59;;;;;;;2.62;1.27;;;13.90;71.50;;;;;;2492975;54;20978;-70
2024/01/18 07:35:25;;;;;;;3.03;1.62;;;13.90;70.50;;;;;;2257684;56;20958;-70
2024/01/18 07:37:54;;;;;;;2.72;1.40;;;13.80;68.90;;;;;;2261850;55;20942;-67
2024/01/18 07:40:24;;;;;;;3.42;1.45;;;13.60;68.00;;;;;;2493592;54;20946;-68
2024/01/18 07:42:50;;;;;;;3.37;1.70;;;13.50;67.40;;;;;;2263852;55;21018;-69
2024/01/18 07:45:20;;;;;;;2.95;1.30;;;13.30;66.80;;;;;;2493739;54;20946;-69
2024/01/18 07:47:47;;;;;;;2.60;1.42;;;13.10;66.00;;;;;;2266948;55;21239;-68
2024/01/18 07:50:16;;;;;;;3.60;2.00;;;13.00;66.20;;;;;;2481894;54;20947;-69
2024/01/18 07:52:44;;;;;;;2.97;1.65;;;12.80;66.00;;;;;;2492946;54;20943;-69
2024/01/18 07:55:11;;;;;;;2.72;1.60;;;12.60;66.30;;;;;;2491952;54;20969;-68
2024/01/18 07:57:41;;;;;;;3.78;1.75;;;12.50;66.60;;;;;;2256084;55;21368;-69
2024/01/18 08:00:08;;;;;;;2.85;1.52;;;12.30;66.30;;;;;;2493686;54;22903;-68
2024/01/18 08:02:34;;;;;;;2.90;1.65;;;12.20;65.90;;;;;;2484669;54;20961;-69
2024/01/18 08:05:01;;;;;;;3.30;2.05;;;12.00;65.20;;;;;;2261269;55;21409;-69
2024/01/18 08:07:30;;;;;;;3.80;2.37;;;11.80;65.00;;;;;;2494488;54;22038;-67
2024/01/18 08:09:56;;;;;;;3.65;2.30;;;11.60;64.70;;;;;;2264887;55;20998;-67
2024/01/18 08:12:22;;;;;;;3.03;1.92;;;11.40;64.40;;;;;;2263495;55;21539;-68
2024/01/18 08:14:49;;;;;;;3.58;2.00;;;11.20;64.20;;;;;;2492802;54;20950;-68
2024/01/18 08:17:15;;;;;;;3.40;1.85;;;11.00;64.10;;;;;;2264814;55;20946;-68
2024/01/18 08:19:42;;;;;;;3.85;2.22;;;10.80;64.10;;;;;;2265534;55;21002;-67
2024/01/18 08:22:11;;;;;;;3.22;2.05;;;10.60;64.30;;;;;;2480603;54;21034;-67
2024/01/18 08:24:37;;;;;;;4.00;2.37;;;10.40;64.60;;;;;;2264324;55;21018;-67
2024/01/18 08:27:04;;;;;;;3.53;2.00;;;10.30;65.40;;;;;;2264705;55;20971;-67
2024/01/18 08:29:30;;;;;;;3.20;1.90;;;10.10;64.50;;;;;;2494166;54;20965;-67
2024/01/18 08:31:56;;;;;;;3.25;2.00;;;10.00;64.40;;;;;;2494290;54;21006;-68
2024/01/18 08:34:23;;;;;;;3.95;2.37;;;9.80;65.40;;;;;;2266153;55;20943;-67
2024/01/18 08:36:51;;;;;;;3.40;2.03;;;9.60;65.20;;;;;;2493783;54;21021;-68
2024/01/18 08:39:17;;;;;;;4.30;2.33;;;9.50;65.10;;;;;;2487930;54;20977;-67
2024/01/18 08:41:43;;;;;;;4.10;2.47;;;9.30;65.00;;;;;;2259307;55;21006;-67
2024/01/18 08:44:10;;;;;;;4.35;2.28;;;9.10;65.20;;;;;;2265305;55;20934;-67
2024/01/18 08:46:38;;;;;;;4.25;2.22;;;9.00;65.60;;;;;;2481316;54;21408;-67
2024/01/18 08:49:05;;;;;;;4.90;3.08;;;8.80;65.50;;;;;;2264703;55;21392;-66
2024/01/18 08:51:31;;;;;;;4.12;2.60;;;8.70;65.50;;;;;;2494413;54;21078;-67
2024/01/18 08:53:57;;;;;;;4.30;2.65;;;8.50;65.40;;;;;;2264733;55;21015;-68
2024/01/18 08:56:24;;;;;;;3.92;2.55;;;8.30;65.40;;;;;;2265276;55;20990;-67
2024/01/18 08:58:51;;;;;;;4.00;2.40;;;8.20;65.50;;;;;;2460291;54;22192;-67
2024/01/18 09:01:18;;;;;;;3.70;2.30;;;8.10;65.70;;;;;;2255411;55;21043;-67
2024/01/18 09:03:44;;;;;;;4.00;2.62;;;7.90;65.80;;;;;;2262684;55;21291;-67
2024/01/18 09:06:11;;;;;;;3.95;2.40;;;7.80;65.90;;;;;;2492007;54;21011;-67
2024/01/18 09:08:37;;;;;;;5.30;3.08;;;7.70;66.00;;;;;;2264513;55;21006;-67
2024/01/18 09:11:04;;;;;;;4.10;2.22;;;7.60;66.10;;;;;;2264506;55;20990;-67
2024/01/18 09:13:30;;;;;;;4.12;2.12;;;7.40;65.90;;;;;;2494127;54;20974;-67
2024/01/18 09:15:59;;;;;;;3.45;1.95;;;7.30;65.90;;;;;;2264376;55;21451;-67
2024/01/18 09:18:26;;;;;;;3.50;2.10;;;7.10;65.80;;;;;;2264867;55;20967;-67
2024/01/18 09:20:54;;;;;;;2.87;1.70;;;7.00;65.90;;;;;;2264200;55;20938;-67
2024/01/18 09:23:20;;;;;;;4.10;1.70;;;6.90;65.90;;;;;;2265106;55;21515;-66
2024/01/18 09:25:47;;;;;;;4.68;2.08;;;6.80;66.20;;;;;;2264336;55;21271;-67
2024/01/18 09:28:14;;;;;;;3.30;1.90;;;6.70;66.40;;;;;;2264483;55;21869;-67
2024/01/18 09:30:40;;;;;;;3.58;1.87;;;6.60;66.70;;;;;;2265168;55;20931;-67
2024/01/18 09:33:08;;;;;;;4.30;2.17;;;6.50;66.80;;;;;;2257139;56;21105;-67
2024/01/18 09:35:34;;;;;;;3.58;2.03;;;6.40;67.00;;;;;;2264987;55;21042;-68
2024/01/18 09:38:01;;;;;;;4.20;2.22;;;6.30;67.00;;;;;;2265165;55;20998;-69
2024/01/18 09:40:28;;;;;;;3.60;2.17;;;6.20;66.90;;;;;;2494510;54;21402;-68
2024/01/18 09:43:06;;;;;;;4.40;2.08;;;6.10;67.00;;;;;;2493069;54;21828;-68
2024/01/18 09:45:35;;;;;;;3.45;1.80;;;6.00;67.10;;;;;;2256708;55;22575;-68
2024/01/18 09:48:03;;;;;;;3.22;1.67;;;5.90;67.10;;;;;;2264993;55;21018;-68
2024/01/18 09:50:29;;;;;;;3.22;1.90;;;5.80;67.20;;;;;;2265141;55;21921;-68
2024/01/18 09:52:57;;;;;;;3.97;1.80;;;5.80;67.30;;;;;;2264370;55;20931;-68
2024/01/18 09:55:24;;;;;;;3.03;1.60;;;5.70;67.30;;;;;;2265113;55;20985;-68
2024/01/18 09:57:50;;;;;;;2.85;1.48;;;5.60;67.50;;;;;;2264473;55;20983;-68
2024/01/18 10:00:17;;;;;;;3.60;1.50;;;5.60;67.80;;;;;;2265112;55;20959;-68
2024/01/18 10:02:43;;;;;;;2.90;1.52;;;5.50;68.00;;;;;;2264740;55;20986;-68
2024/01/18 10:05:13;;;;;;;3.12;1.50;;;5.40;68.10;;;;;;2494356;54;21310;-68
2024/01/18 10:07:40;;;;;;;3.00;1.50;;;5.40;68.30;;;;;;2236366;57;21019;-69
2024/01/18 10:10:08;;;;;;;3.15;1.40;;;5.40;68.40;;;;;;2264957;55;20938;-68
2024/01/18 10:12:44;;;;;;;3.08;1.60;;;5.30;68.40;;;;;;2495202;54;20975;-68
2024/01/18 10:15:11;;;;;;;2.92;1.40;;;5.30;68.50;;;;;;2267534;55;21287;-68
2024/01/18 10:17:38;;;;;;;3.75;1.50;;;5.20;68.50;;;;;;2264656;55;21337;-68
2024/01/18 10:20:13;;;;;;;3.60;1.60;;;5.20;68.60;;;;;;2265169;55;21011;-68
2024/01/18 10:22:41;;;;;;;3.35;1.87;;;5.10;68.60;;;;;;2265328;55;20971;-68
2024/01/18 10:25:12;;;;;;;3.87;1.80;;;5.10;68.80;;;;;;2482501;54;21000;-68
2024/01/18 10:27:41;;;;;;;3.00;1.60;;;5.10;68.90;;;;;;2494334;54;20966;-69
2024/01/18 10:30:15;;;;;;;2.78;1.48;;;5.00;69.00;;;;;;2264945;55;20950;-68
2024/01/18 10:32:45;;;;;;;2.97;1.45;;;5.00;69.20;;;;;;2265043;55;21043;-68
2024/01/18 10:35:24;;;;;;;2.62;1.23;;;5.00;69.40;;;;;;2495836;54;20954;-69
2024/01/18 10:37:59;;;;;;;3.12;1.30;;;5.00;69.40;;;;;;2494518;54;21018;-69
2024/01/18 10:40:27;;;;;;;2.90;1.33;;;5.00;69.60;;;;;;2494483;54;21511;-69
2024/01/18 10:42:55;;;;;;;2.65;1.35;;;5.00;69.60;;;;;;2264036;55;21002;-69
2024/01/18 10:45:21;;;;;;;2.35;1.20;;;5.00;69.60;;;;;;2265385;55;21022;-69
2024/01/18 10:47:47;;;;;;;3.05;1.48;;;4.90;69.60;;;;;;2494988;54;21467;-69
2024/01/18 10:50:16;;;;;;;2.75;1.30;;;4.90;69.70;;;;;;2494457;54;21831;-69
2024/01/18 10:52:42;;;;;;;2.60;1.30;;;4.90;69.70;;;;;;2495071;54;21396;-69
2024/01/18 10:55:11;;;;;;;2.62;1.30;;;4.90;69.80;;;;;;2494372;54;20930;-69
2024/01/18 10:57:38;;;;;;;2.50;1.20;;;4.90;69.80;;;;;;2265326;55;20934;-69
2024/01/18 11:00:06;;;;;;;3.10;1.30;;;4.90;69.80;;;;;;2494113;54;22919;-69
2024/01/18 11:02:40;;;;;;;3.40;1.70;;;4.90;69.80;;;;;;2258692;55;21287;-69
2024/01/18 11:05:08;;;;;;;3.17;1.42;;;4.90;69.80;;;;;;2263503;55;20960;-69
2024/01/18 11:07:38;;;;;;;3.35;1.50;;;4.80;69.80;;;;;;2247170;56;20979;-69
2024/01/18 11:10:13;;;;;;;2.20;1.10;;;4.80;69.90;;;;;;2264481;55;20966;-70
2024/01/18 11:12:41;;;;;;;3.90;1.10;;;4.80;69.90;;;;;;2265097;55;21006;-69
2024/01/18 11:15:10;;;;;;;2.85;1.33;;;4.80;69.90;;;;;;2493173;54;21034;-69
2024/01/18 11:17:46;;;;;;;3.00;1.25;;;4.80;69.90;;;;;;2264261;55;21018;-69
2024/01/18 11:20:13;;;;;;;2.33;1.10;;;4.80;70.00;;;;;;2264268;55;20947;-69
2024/01/18 11:22:39;;;;;;;2.70;1.35;;;4.80;70.10;;;;;;2260705;55;20972;-69
2024/01/18 11:25:07;;;;;;;3.05;1.60;;;4.80;70.10;;;;;;2260952;55;20959;-69
2024/01/18 11:27:38;;;;;;;2.80;1.25;;;4.80;70.20;;;;;;2265091;55;20943;-69
2024/01/18 11:30:10;;;;;;;2.85;1.30;;;4.80;70.10;;;;;;2266242;55;21110;-69
2024/01/18 11:32:37;;;;;;;3.65;1.65;;;4.80;70.00;;;;;;2482986;54;20978;-69
2024/01/18 11:35:14;;;;;;;4.40;1.60;;;4.70;69.90;;;;;;2264492;55;21563;-69
2024/01/18 11:37:41;;;;;;;3.45;1.60;;;4.70;69.80;;;;;;2494261;54;21440;-70
2024/01/18 11:40:10;;;;;;;3.00;1.50;;;4.70;69.80;;;;;;2263481;55;21063;-69
2024/01/18 11:42:40;;;;;;;3.30;1.60;;;4.70;69.70;;;;;;2486469;54;20931;-69
2024/01/18 11:45:19;;;;;;;3.95;1.95;;;4.60;69.60;;;;;;2264525;55;21310;-69
2024/01/18 11:47:46;;;;;;;2.83;1.42;;;4.60;69.50;;;;;;2265170;55;20961;-69
2024/01/18 11:50:12;;;;;;;4.03;1.50;;;4.60;69.60;;;;;;2483280;54;21078;-69
2024/01/18 11:52:42;;;;;;;3.03;1.58;;;4.60;69.60;;;;;;2265003;55;20970;-69
2024/01/18 11:55:11;;;;;;;2.85;1.40;;;4.50;69.40;;;;;;2264091;55;21030;-69
2024/01/18 11:57:37;;;;;;;3.78;1.48;;;4.50;69.50;;;;;;2265401;55;21089;-68
2024/01/18 12:00:04;;;;;;;3.37;1.60;;;4.50;69.60;;;;;;2264725;55;20986;-69
2024/01/18 12:02:31;;;;;;;4.25;1.77;;;4.50;69.60;;;;;;2264249;55;21066;-69
2024/01/18 12:04:57;;;;;;;2.95;1.42;;;4.40;69.40;;;;;;2263889;55;21015;-69
2024/01/18 12:07:25;;;;;;;2.65;1.20;;;4.40;69.30;;;;;;2487943;53;20972;-68
2024/01/18 12:09:51;;;;;;;3.53;1.50;;;4.40;69.40;;;;;;2487858;54;20998;-68
2024/01/18 12:12:19;;;;;;;3.92;1.60;;;4.30;70.00;;;;;;2264164;55;21440;-68
2024/01/18 12:14:45;;;;;;;4.37;1.50;;;4.30;69.30;;;;;;2236947;57;21059;-68
2024/01/18 12:17:12;;;;;;;3.70;1.70;;;4.30;69.40;;;;;;2260999;56;21252;-68
2024/01/18 12:19:43;;;;;;;2.85;1.60;;;4.20;69.40;;;;;;2255528;56;21051;-68
2024/01/18 12:22:18;;;;;;;3.00;1.40;;;4.20;69.40;;;;;;2264909;55;20983;-69
2024/01/18 12:24:47;;;;;;;3.35;1.45;;;4.20;69.40;;;;;;2264737;55;20983;-68
2024/01/18 12:27:14;;;;;;;3.00;1.45;;;4.20;69.60;;;;;;2264197;55;20982;-68
2024/01/18 12:29:41;;;;;;;2.87;1.50;;;4.10;69.60;;;;;;2494423;54;21010;-68
2024/01/18 12:32:10;;;;;;;3.58;1.45;;;4.10;69.70;;;;;;2264991;55;20958;-68
2024/01/18 12:34:37;;;;;;;3.65;1.70;;;4.10;69.90;;;;;;2494722;54;20950;-68
2024/01/18 12:37:03;;;;;;;3.60;1.80;;;4.10;70.00;;;;;;2265089;55;21466;-68
2024/01/18 12:39:30;;;;;;;3.47;1.70;;;4.10;70.00;;;;;;2264230;55;21491;-68
2024/01/18 12:41:57;;;;;;;4.20;1.80;;;4.10;70.00;;;;;;2264406;55;20970;-68
2024/01/18 12:44:23;;;;;;;4.12;1.90;;;4.10;70.10;;;;;;2494220;54;20979;-68
2024/01/18 12:46:51;;;;;;;5.05;2.33;;;4.10;70.10;;;;;;2265492;55;21006;-68
2024/01/18 12:49:17;;;;;;;4.47;1.83;;;3.90;70.00;;;;;;2494705;54;21007;-69
2024/01/18 12:51:54;;;;;;;4.28;2.00;;;4.10;70.20;;;;;;2494642;54;20994;-68